Gober, Texas
Current Conditions -  °F | °C
As of 12:15 PM on Thursday 27 Nov 2014 (Local Time) from KGVT Reporting Station
Clear Clear  
Wind Chill: 55°   Ceiling: Unl
Heat Index: 55°   Visibility: 10mi
Dew Point: 19°   Wind: 8mph
Humidity: 25%   Direction: 40°NE
Pressure: 30.49"   Gusts: NA
Location:  33.47°N, 96.09°W
Report Text: KGVT 271815Z AUTO 04007KT 10SM CLR 13/M07 A3049 RMK AO2
Loading
Personal Weather Stations






























Interactive Weather Map New forecast layout! Learn more

10-Day Weather Forecast

Advertisements
Track Severe Weather on mobile